Flight Track Log - Related Links

Times and Time Zones

All times are in EDT time to prevent confusion due to time zone crossing. See the JTA62 flight status page for this flight to view local times or setup timezone preferences in your user account.

Time Position Orientation Groundspeed Altitude Reporting Facility
EDT Latitude Longitude Course Direction KTS MPH feet Rate Location/Type
Mon 07:09:00 AM 26.5761 127.7802 18° North  Level Estimated
Mon 07:10:00 AM 26.6712 127.8139 18° North  Level Estimated
Mon 07:11:00 AM 26.7662 127.8476 18° North  Level Estimated
Mon 07:12:00 AM 26.8613 127.8815 18° North  Level Estimated
Mon 07:13:00 AM 26.9563 127.9154 18° North  Level Estimated
Mon 07:14:00 AM 27.0513 127.9493 18° North  Level Estimated
Mon 07:15:00 AM 27.1464 127.9833 18° North  Level Estimated
Mon 07:16:00 AM 27.2414 128.0173 18° North  Level Estimated
Mon 07:17:00 AM 27.3364 128.0515 18° North  Level Estimated
Mon 07:18:00 AM 27.4314 128.0856 18° North  Level Estimated
Mon 07:19:00 AM 27.5263 128.1198 18° North  Level Estimated
Mon 07:20:00 AM 27.6213 128.1541 18° North  Level Estimated
Mon 07:21:00 AM 27.7117 128.1868 18° North  Level Estimated
Mon 07:22:00 AM 27.8020 128.2195 18° North  Level Estimated
Mon 07:23:00 AM 27.8923 128.2523 18° North  Level Estimated
Mon 07:24:00 AM 27.9826 128.2852 18° North  Level Estimated
Mon 07:25:00 AM 28.0729 128.3181 18° North  Level Estimated
Mon 07:26:00 AM 28.1643 128.3514 18° North  Level Estimated
Mon 07:27:00 AM 28.2557 128.3848 18° North  Level Estimated
Mon 07:28:00 AM 28.3471 128.4183 18° North  Level Estimated
Mon 07:29:00 AM 28.4385 128.4518 18° North  Level Estimated
Mon 07:30:00 AM 28.5299 128.4854 18° North  Level Estimated
Mon 07:31:00 AM 28.6213 128.5190 18° North  Level Estimated
Mon 07:32:00 AM 28.7126 128.5527 18° North  Level Estimated
Mon 07:33:00 AM 28.8040 128.5865 18° North  Level Estimated
Mon 07:34:00 AM 28.8953 128.6203 18° North  Level Estimated
Mon 07:35:00 AM 28.9866 128.6542 18° North  Level Estimated
Mon 07:36:00 AM 29.0780 128.6881 18° North  Level Estimated
Mon 07:37:00 AM 29.1693 128.7221 18° North  Level Estimated
Mon 07:38:00 AM 29.2606 128.7562 18° North  Level Estimated
Mon 07:39:00 AM 29.3519 128.7903 18° North  Level Estimated
Mon 07:40:00 AM 29.4432 128.8245 18° North  Level Estimated
Mon 07:41:00 AM 29.5345 128.8587 18° North  Level Estimated
Mon 07:42:00 AM 29.6257 128.8930 18° North  Level Estimated
Mon 07:43:00 AM 29.7170 128.9274 18° North  Level Estimated
Mon 07:44:00 AM 29.8083 128.9618 18° North  Level Estimated
Mon 07:45:00 AM 29.8995 128.9963 18° North  Level Estimated
Mon 07:46:00 AM 29.9908 129.0309 18° North  Level Estimated
Mon 07:47:00 AM 30.0820 129.0655 18° North  Level Estimated
Mon 07:48:00 AM 30.1732 129.1002 18° North  Level Estimated
Mon 07:49:00 AM 30.2644 129.1349 18° North  Level Estimated
Mon 07:50:00 AM 30.3556 129.1697 18° North  Level Estimated
Mon 07:51:00 AM 30.4468 129.2046 18° North  Level Estimated
Mon 07:52:00 AM 30.5380 129.2395 18° North  Level Estimated
Mon 07:53:00 AM 30.6292 129.2746 18° North  Level Estimated
Mon 07:54:00 AM 30.7204 129.3096 18° North  Level Estimated
Mon 07:55:00 AM 30.8115 129.3448 18° North  Level Estimated
Mon 07:56:00 AM 30.9027 129.3800 18° North  Level Estimated
Mon 07:57:00 AM 30.9938 129.4152 18° North  Level Estimated
Mon 07:58:00 AM 31.0849 129.4506 18° North  Level Estimated
Mon 07:59:00 AM 31.1761 129.4860 18° North  Level Estimated
Mon 08:00:00 AM 31.2672 129.5215 18° North  Level Estimated
Mon 08:01:00 AM 31.3583 129.5570 18° North  Level Estimated
Mon 08:02:00 AM 31.4494 129.5926 18° North  Level Estimated
Mon 08:03:00 AM 31.5404 129.6283 18° North  Level Estimated
Mon 08:04:00 AM 31.6315 129.6640 18° North  Level Estimated
Mon 08:05:00 AM 31.7226 129.6999 19° North  Level Estimated
Mon 08:06:00 AM 31.8136 129.7358 19° North  Level Estimated
Mon 08:07:00 AM 31.9047 129.7717 19° North  Level Estimated
Mon 08:08:00 AM 31.9957 129.8078 19° North  Level Estimated
Mon 08:09:00 AM 32.0867 129.8439 19° North  Level Estimated
Mon 08:10:00 AM 32.1777 129.8801 19° North  Level Estimated
Mon 08:11:00 AM 32.2687 129.9163 19° North  Level Estimated
Mon 08:12:00 AM 32.3597 129.9526 19° North  Level Estimated
Mon 08:13:00 AM 32.4507 129.9890 19° North  Level Estimated
Mon 08:14:00 AM 32.5417 130.0255 19° North  Level Estimated
Mon 08:15:00 AM 32.6326 130.0621 19° North  Level Estimated
Mon 08:16:00 AM 32.7236 130.0987 19° North  Level Estimated
Mon 08:17:00 AM 32.8145 130.1354 19° North  Level Estimated
Mon 08:18:00 AM 32.9054 130.1721 19° North  Level Estimated
Mon 08:19:00 AM 32.9963 130.2090 19° North  Level Estimated
Mon 08:20:00 AM 33.0872 130.2459 19° North  Level Estimated
Mon 08:21:00 AM 33.1781 130.2829 19° North  Level Estimated
Mon 08:22:00 AM 33.2690 130.3200 19° North  Level Estimated
Mon 08:23:00 AM 33.3599 130.3571 19° North  Level Estimated
Mon 08:24:00 AM 33.4507 130.3944 19° North  Level Estimated
Mon 08:25:00 AM 33.5476 130.4341 19° North  Level Estimated
Mon 08:26:00 AM 33.5866 130.4502 19° North  Level Estimated
Mon 08:27:00 AM 33.5866 130.4502 248° West  Level Estimated
Mon 08:28:00 AM 33.5866 130.4502 248° West  Level Estimated
Mon 08:29:00 AM 33.5866 130.4502 248° West  Level Estimated
Mon 08:30:00 AM 33.5866 130.4502 248° West  Level Estimated
Mon 08:31:00 AM 33.5866 130.4502 248° West  Level Estimated

Login

Don't have an account? Register now (free) for customized features, flight alerts, and more!